Time;durP1;ratioP1;P1;durP2;ratioP2;P2;SDS_P1;SDS_P2;PMS_P1;PMS_P2;Temp;Humidity;BMP_temperature;BMP_pressure;BME280_temperature;BME280_humidity;BME280_pressure;Samples;Min_cycle;Max_cycle;Signal;HPM_P1;HPM_P2
2024/03/19 00:00:38;;;;;;;30.77;14.93;;;0.50;99.90;;;;;;4916793;29;20024;-84
2024/03/19 00:03:07;;;;;;;42.13;19.90;;;0.50;99.90;;;;;;4917335;29;20020;-84
2024/03/19 00:05:33;;;;;;;30.70;15.48;;;0.50;99.90;;;;;;4932550;29;20027;-84
2024/03/19 00:07:59;;;;;;;28.98;14.95;;;0.50;99.90;;;;;;4916462;29;20024;-84
2024/03/19 00:10:24;;;;;;;32.45;16.63;;;0.60;99.90;;;;;;4916642;29;20401;-84
2024/03/19 00:12:50;;;;;;;33.10;17.17;;;0.50;99.90;;;;;;4932201;29;20051;-84
2024/03/19 00:15:16;;;;;;;33.13;16.02;;;0.50;99.90;;;;;;4917588;29;20044;-84
2024/03/19 00:17:42;;;;;;;25.42;14.07;;;0.50;99.90;;;;;;4931810;29;20076;-84
2024/03/19 00:20:11;;;;;;;29.90;14.98;;;0.50;99.90;;;;;;4917738;29;20028;-83
2024/03/19 00:22:37;;;;;;;27.83;13.95;;;0.50;99.90;;;;;;4915978;29;20075;-83
2024/03/19 00:25:05;;;;;;;36.78;19.02;;;0.40;99.90;;;;;;4916253;29;20020;-84
2024/03/19 00:27:32;;;;;;;78.05;34.55;;;0.50;99.90;;;;;;4916216;29;20024;-83
2024/03/19 00:29:58;;;;;;;47.70;20.25;;;0.50;99.90;;;;;;4916259;29;20024;-83
2024/03/19 00:32:23;;;;;;;44.75;19.63;;;0.50;99.90;;;;;;4917388;29;20042;-83
2024/03/19 00:34:49;;;;;;;49.50;22.90;;;0.50;99.90;;;;;;4915778;29;20032;-84
2024/03/19 00:37:15;;;;;;;35.92;17.17;;;0.50;99.90;;;;;;4916024;29;20024;-84
2024/03/19 00:39:41;;;;;;;29.10;15.13;;;0.50;99.90;;;;;;4917384;29;20024;-84
2024/03/19 00:42:07;;;;;;;31.15;15.55;;;0.50;99.90;;;;;;4916882;29;20099;-84
2024/03/19 00:44:33;;;;;;;28.40;14.85;;;0.50;99.90;;;;;;4917189;29;20115;-83
2024/03/19 00:46:59;;;;;;;41.53;18.08;;;0.60;99.90;;;;;;4916755;29;20489;-84
2024/03/19 00:49:26;;;;;;;39.63;17.23;;;0.50;99.90;;;;;;4917026;29;20056;-83
2024/03/19 00:51:52;;;;;;;30.50;15.77;;;0.60;99.90;;;;;;4915698;29;20387;-83
2024/03/19 00:54:18;;;;;;;29.27;14.57;;;0.60;99.90;;;;;;4915989;29;20020;-84
2024/03/19 00:56:43;;;;;;;32.22;16.33;;;0.60;99.90;;;;;;4916790;29;20379;-84
2024/03/19 00:59:09;;;;;;;29.15;15.15;;;0.60;99.90;;;;;;4915630;29;20126;-84
2024/03/19 01:01:35;;;;;;;31.60;17.00;;;0.50;99.90;;;;;;4915507;29;20474;-84
2024/03/19 01:04:04;;;;;;;33.17;16.02;;;0.40;99.90;;;;;;4931495;29;20467;-84
2024/03/19 01:06:36;;;;;;;91.75;40.70;;;0.40;99.90;;;;;;4911112;29;20067;-84
2024/03/19 01:09:05;;;;;;;55.25;26.58;;;0.50;99.90;;;;;;4916380;29;20058;-84
2024/03/19 01:11:32;;;;;;;51.40;22.40;;;0.50;99.90;;;;;;4917168;29;20024;-84
2024/03/19 01:13:59;;;;;;;64.32;30.35;;;0.50;99.90;;;;;;4917119;29;20442;-84
2024/03/19 01:16:25;;;;;;;55.70;27.65;;;0.50;99.90;;;;;;4916296;29;20453;-84
2024/03/19 01:18:51;;;;;;;79.75;35.60;;;0.50;99.90;;;;;;4911454;29;20084;-84
2024/03/19 01:21:16;;;;;;;45.75;22.25;;;0.50;99.90;;;;;;4915498;29;20016;-84
2024/03/19 01:23:44;;;;;;;29.10;14.77;;;0.50;99.90;;;;;;4916383;29;20029;-87
2024/03/19 01:26:09;;;;;;;38.72;19.52;;;0.50;99.90;;;;;;4916273;29;20035;-85
2024/03/19 01:28:36;;;;;;;27.30;14.48;;;0.50;99.90;;;;;;4923462;29;20066;-85
2024/03/19 01:31:02;;;;;;;27.95;15.27;;;0.50;99.90;;;;;;4914303;29;20024;-85
2024/03/19 01:33:27;;;;;;;27.60;15.07;;;0.50;99.90;;;;;;4916453;29;20108;-85
2024/03/19 01:35:53;;;;;;;33.38;17.05;;;0.50;99.90;;;;;;4915205;29;20376;-84
2024/03/19 01:38:23;;;;;;;27.70;14.00;;;0.50;99.90;;;;;;4915039;29;20035;-84
2024/03/19 01:40:49;;;;;;;31.02;16.60;;;0.50;99.90;;;;;;4914590;29;20024;-85
2024/03/19 01:43:17;;;;;;;31.58;15.68;;;0.50;99.90;;;;;;4930333;29;20042;-86
2024/03/19 01:45:43;;;;;;;28.63;15.57;;;0.50;99.90;;;;;;4906220;29;20028;-85
2024/03/19 01:48:09;;;;;;;33.20;16.42;;;0.50;99.90;;;;;;4916231;29;20147;-85
2024/03/19 01:50:38;;;;;;;30.35;15.88;;;0.50;99.90;;;;;;4915198;29;20393;-85
2024/03/19 01:53:04;;;;;;;32.00;16.10;;;0.40;99.90;;;;;;4916077;29;20119;-84
2024/03/19 01:55:30;;;;;;;30.27;15.32;;;0.40;99.90;;;;;;4914734;29;20622;-84
2024/03/19 01:57:56;;;;;;;30.40;16.17;;;0.40;99.90;;;;;;4914126;29;20533;-85
2024/03/19 02:00:22;;;;;;;31.05;15.65;;;0.30;99.90;;;;;;4914476;29;20394;-84
2024/03/19 02:02:48;;;;;;;29.17;16.40;;;0.40;99.90;;;;;;4914659;29;20028;-84
2024/03/19 02:05:14;;;;;;;31.98;16.42;;;0.40;99.90;;;;;;4916162;29;20031;-85
2024/03/19 02:07:39;;;;;;;32.00;16.13;;;0.40;99.90;;;;;;4915859;29;20012;-84
2024/03/19 02:10:07;;;;;;;32.40;15.88;;;0.40;99.90;;;;;;4914887;29;20031;-85
2024/03/19 02:12:33;;;;;;;33.53;16.58;;;0.30;99.90;;;;;;4914848;29;20115;-86
2024/03/19 02:14:59;;;;;;;32.38;16.20;;;0.40;99.90;;;;;;4917254;29;20017;-86
2024/03/19 02:17:25;;;;;;;29.77;15.95;;;0.40;99.90;;;;;;4918391;29;20047;-87
2024/03/19 02:19:51;;;;;;;32.63;17.48;;;0.40;99.90;;;;;;4918538;29;20111;-86
2024/03/19 02:22:16;;;;;;;33.22;16.73;;;0.40;99.90;;;;;;4919713;29;20074;-85
2024/03/19 02:24:43;;;;;;;33.88;16.83;;;0.40;99.90;;;;;;4919776;29;20024;-85
2024/03/19 02:27:12;;;;;;;31.58;18.08;;;0.30;99.90;;;;;;4917804;29;20560;-85
2024/03/19 02:29:38;;;;;;;34.97;17.30;;;0.40;99.90;;;;;;4919677;29;20031;-85
2024/03/19 02:32:04;;;;;;;33.78;16.65;;;0.40;99.90;;;;;;4918274;29;20021;-85
2024/03/19 02:34:31;;;;;;;34.17;17.52;;;0.40;99.90;;;;;;4919347;29;20032;-84
2024/03/19 02:36:57;;;;;;;31.42;16.98;;;0.40;99.90;;;;;;4918511;29;20051;-85
2024/03/19 02:39:25;;;;;;;36.72;16.83;;;0.40;99.90;;;;;;4918176;29;20028;-85
2024/03/19 02:41:52;;;;;;;32.42;16.27;;;0.40;99.90;;;;;;4918712;29;20028;-84
2024/03/19 02:44:17;;;;;;;31.02;16.30;;;0.40;99.90;;;;;;4918433;29;20056;-84
2024/03/19 02:46:43;;;;;;;31.35;17.15;;;0.40;99.90;;;;;;4915605;29;20024;-84
2024/03/19 02:49:09;;;;;;;29.50;14.68;;;0.50;99.90;;;;;;4918997;29;20052;-84
2024/03/19 02:51:34;;;;;;;32.95;17.13;;;0.40;99.90;;;;;;4918895;29;20048;-85
2024/03/19 02:54:00;;;;;;;30.45;15.70;;;0.40;99.90;;;;;;4917629;29;20024;-85
2024/03/19 02:56:26;;;;;;;30.65;16.40;;;0.40;99.90;;;;;;4919053;29;20114;-85
2024/03/19 02:58:51;;;;;;;34.17;17.70;;;0.40;99.90;;;;;;4917619;29;20020;-85
2024/03/19 03:01:18;;;;;;;34.47;17.55;;;0.40;99.90;;;;;;4919016;29;20031;-86
2024/03/19 03:03:44;;;;;;;37.58;17.45;;;0.40;99.90;;;;;;4917413;29;20033;-85
2024/03/19 03:06:10;;;;;;;30.90;16.52;;;0.40;99.90;;;;;;4917489;29;20023;-85
2024/03/19 03:08:35;;;;;;;35.60;17.52;;;0.40;99.90;;;;;;4913768;29;20032;-85
2024/03/19 03:11:01;;;;;;;31.85;17.38;;;0.30;99.90;;;;;;4913344;29;20028;-85
2024/03/19 03:13:27;;;;;;;36.38;16.00;;;0.40;99.90;;;;;;4916952;29;20035;-85
2024/03/19 03:15:53;;;;;;;32.25;17.55;;;0.30;99.90;;;;;;4908076;29;20063;-84
2024/03/19 03:18:19;;;;;;;30.20;14.75;;;0.30;99.90;;;;;;4917479;29;20024;-84
2024/03/19 03:20:44;;;;;;;32.05;17.92;;;0.30;99.90;;;;;;4917028;29;20111;-84
2024/03/19 03:23:10;;;;;;;33.25;16.08;;;0.40;99.90;;;;;;4917840;29;20140;-84
2024/03/19 03:25:36;;;;;;;31.55;16.25;;;0.30;99.90;;;;;;4917587;29;20032;-83
2024/03/19 03:28:03;;;;;;;37.25;16.85;;;0.30;99.90;;;;;;4918297;29;20119;-84
2024/03/19 03:30:29;;;;;;;33.45;17.38;;;0.40;99.90;;;;;;4918802;29;20386;-85
2024/03/19 03:32:54;;;;;;;34.28;17.15;;;0.30;99.90;;;;;;4918410;29;20036;-85
2024/03/19 03:35:21;;;;;;;32.53;15.55;;;0.30;99.90;;;;;;4918542;29;20032;-86
2024/03/19 03:37:47;;;;;;;32.33;16.58;;;0.30;99.90;;;;;;4916843;29;20020;-86
2024/03/19 03:40:19;;;;;;;30.27;16.90;;;0.40;99.90;;;;;;4932716;29;20020;-86
2024/03/19 03:42:48;;;;;;;33.08;17.38;;;0.40;99.90;;;;;;4917009;29;20447;-86
2024/03/19 03:45:19;;;;;;;32.50;16.33;;;0.30;99.90;;;;;;4916854;29;20529;-85
2024/03/19 03:47:45;;;;;;;28.80;15.88;;;0.30;99.90;;;;;;4889835;29;20064;-85
2024/03/19 03:50:12;;;;;;;35.05;17.70;;;0.30;99.90;;;;;;4918160;29;20055;-83
2024/03/19 03:52:38;;;;;;;30.77;15.40;;;0.30;99.90;;;;;;4917909;29;20040;-82
2024/03/19 03:55:09;;;;;;;32.72;16.88;;;0.40;99.90;;;;;;4917888;29;20032;-81
2024/03/19 03:57:36;;;;;;;32.30;16.58;;;0.40;99.90;;;;;;4912620;29;20497;-81
2024/03/19 04:00:11;;;;;;;33.35;18.10;;;0.40;99.90;;;;;;4918071;29;20039;-81
2024/03/19 04:02:38;;;;;;;29.30;16.35;;;0.40;99.90;;;;;;4916431;29;20494;-81
2024/03/19 04:05:07;;;;;;;34.83;15.18;;;0.50;99.90;;;;;;4932490;29;20025;-81
2024/03/19 04:07:39;;;;;;;28.17;14.35;;;0.40;99.90;;;;;;4916134;29;20028;-81
2024/03/19 04:10:05;;;;;;;37.08;18.55;;;0.40;99.90;;;;;;4932752;29;20464;-83
2024/03/19 04:12:32;;;;;;;31.85;18.23;;;0.50;99.90;;;;;;4917822;29;20024;-83
2024/03/19 04:14:57;;;;;;;35.42;17.63;;;0.50;99.90;;;;;;4916787;29;20024;-83
2024/03/19 04:17:23;;;;;;;32.75;16.50;;;0.50;99.90;;;;;;4917715;29;20565;-82
2024/03/19 04:19:49;;;;;;;33.53;15.68;;;0.50;99.90;;;;;;4917599;29;20039;-82
2024/03/19 04:22:14;;;;;;;34.35;17.52;;;0.50;99.90;;;;;;4931439;29;20031;-83
2024/03/19 04:24:40;;;;;;;39.47;18.05;;;0.50;99.90;;;;;;4909493;29;20123;-85
2024/03/19 04:27:05;;;;;;;32.33;18.00;;;0.50;99.90;;;;;;4917455;29;20103;-84
2024/03/19 04:29:31;;;;;;;32.10;17.77;;;0.50;99.90;;;;;;4932236;29;20615;-84
2024/03/19 04:31:57;;;;;;;36.63;15.80;;;0.50;99.90;;;;;;4916318;29;20031;-83
2024/03/19 04:34:22;;;;;;;35.60;17.48;;;0.50;99.90;;;;;;4906808;29;20398;-84
2024/03/19 04:36:48;;;;;;;29.65;16.73;;;0.50;99.90;;;;;;4916205;29;20521;-86
2024/03/19 04:39:16;;;;;;;31.00;16.33;;;0.50;99.90;;;;;;4915888;29;20032;-86
2024/03/19 04:41:42;;;;;;;34.50;16.55;;;0.50;99.90;;;;;;4909261;29;20024;-86
2024/03/19 04:44:08;;;;;;;34.80;18.08;;;0.50;99.90;;;;;;4916164;29;20020;-85
2024/03/19 04:46:34;;;;;;;27.77;15.43;;;0.50;99.90;;;;;;4915933;29;20537;-85
2024/03/19 04:49:01;;;;;;;30.52;16.08;;;0.50;99.90;;;;;;4915710;29;20140;-85
2024/03/19 04:51:27;;;;;;;28.52;14.23;;;0.50;99.90;;;;;;4917324;29;20020;-86
2024/03/19 04:53:53;;;;;;;36.42;17.23;;;0.50;99.90;;;;;;4916803;29;20032;-85
2024/03/19 04:56:20;;;;;;;30.98;16.58;;;0.50;99.90;;;;;;4915240;29;20036;-86
2024/03/19 04:58:45;;;;;;;26.08;14.68;;;0.50;99.90;;;;;;4915667;29;20028;-86
2024/03/19 05:01:15;;;;;;;31.58;14.85;;;0.50;99.90;;;;;;4915614;29;20028;-85
2024/03/19 05:03:41;;;;;;;29.10;15.68;;;0.60;99.90;;;;;;4916731;29;20031;-84
2024/03/19 05:06:08;;;;;;;25.83;14.43;;;0.60;99.90;;;;;;4911417;29;20079;-84
2024/03/19 05:08:34;;;;;;;28.50;14.90;;;0.50;99.90;;;;;;4916990;29;20035;-84
2024/03/19 05:11:00;;;;;;;26.23;14.45;;;0.60;99.90;;;;;;4915510;29;20378;-83
2024/03/19 05:13:26;;;;;;;26.58;15.43;;;0.60;99.90;;;;;;4913448;29;20039;-84
2024/03/19 05:15:51;;;;;;;30.15;15.00;;;0.60;99.90;;;;;;4915091;29;20044;-84
2024/03/19 05:18:17;;;;;;;30.10;13.85;;;0.60;99.90;;;;;;4915565;29;20059;-84
2024/03/19 05:20:42;;;;;;;27.17;14.85;;;0.60;99.90;;;;;;4915164;29;20032;-84
2024/03/19 05:23:08;;;;;;;28.38;15.57;;;0.60;99.90;;;;;;4915257;29;20020;-84
2024/03/19 05:25:34;;;;;;;32.40;17.13;;;0.60;99.90;;;;;;4915286;29;20024;-84
2024/03/19 05:27:59;;;;;;;36.03;18.50;;;0.60;99.90;;;;;;4915480;29;20111;-84
2024/03/19 05:30:29;;;;;;;34.45;18.92;;;0.60;99.90;;;;;;4914159;29;20032;-84
2024/03/19 05:32:55;;;;;;;35.17;19.05;;;0.60;99.90;;;;;;4914749;29;20067;-85
2024/03/19 05:35:21;;;;;;;33.70;17.20;;;0.60;99.90;;;;;;4914912;29;20035;-85
2024/03/19 05:37:47;;;;;;;30.35;16.13;;;0.60;99.90;;;;;;4915109;29;20064;-83
2024/03/19 05:40:13;;;;;;;30.08;14.90;;;0.60;99.90;;;;;;4923219;29;20021;-84
2024/03/19 05:42:39;;;;;;;26.60;15.15;;;0.60;99.90;;;;;;4912940;29;20024;-85
2024/03/19 05:45:07;;;;;;;26.70;15.50;;;0.60;99.90;;;;;;4915878;29;20035;-84
2024/03/19 05:47:34;;;;;;;30.13;17.70;;;0.60;99.90;;;;;;4915246;29;20020;-84
2024/03/19 05:50:02;;;;;;;30.33;17.05;;;0.60;99.90;;;;;;4915647;29;20055;-84
2024/03/19 05:52:29;;;;;;;28.83;14.25;;;0.60;99.90;;;;;;4916206;29;20111;-84
2024/03/19 05:54:54;;;;;;;26.70;13.70;;;0.60;99.90;;;;;;4910623;29;20402;-84
2024/03/19 05:57:20;;;;;;;26.60;13.98;;;0.60;99.90;;;;;;4910696;29;20032;-86
2024/03/19 05:59:46;;;;;;;25.77;13.43;;;0.60;99.90;;;;;;4913523;29;20055;-85
2024/03/19 06:02:11;;;;;;;25.95;13.25;;;0.60;99.90;;;;;;4928491;29;20083;-84
2024/03/19 06:04:37;;;;;;;29.27;13.93;;;0.60;99.90;;;;;;4915008;29;20024;-84
2024/03/19 06:07:03;;;;;;;27.58;13.90;;;0.60;99.90;;;;;;4915576;29;20028;-85
2024/03/19 06:09:29;;;;;;;29.33;14.20;;;0.70;99.90;;;;;;4916193;29;20016;-89
2024/03/19 06:11:58;;;;;;;27.50;14.32;;;0.80;99.90;;;;;;4913871;29;20055;-87
2024/03/19 06:14:24;;;;;;;28.10;14.07;;;0.80;99.90;;;;;;4911456;29;20020;-86
2024/03/19 06:16:50;;;;;;;28.48;13.60;;;0.90;99.90;;;;;;4916657;29;20066;-85
2024/03/19 06:19:16;;;;;;;24.05;12.65;;;0.90;99.90;;;;;;4913986;29;20035;-85
2024/03/19 06:21:43;;;;;;;24.58;14.02;;;0.90;99.90;;;;;;4912740;29;20132;-83
2024/03/19 06:24:09;;;;;;;15.98;8.38;;;0.90;99.90;;;;;;4914547;29;20107;-84
2024/03/19 06:26:35;;;;;;;25.42;13.73;;;0.90;99.90;;;;;;4914454;29;20032;-84
2024/03/19 06:29:01;;;;;;;26.42;13.85;;;0.90;99.90;;;;;;4915124;29;20040;-82
2024/03/19 06:31:28;;;;;;;28.17;14.50;;;0.90;99.90;;;;;;4915209;29;20024;-85
2024/03/19 06:33:54;;;;;;;21.48;12.27;;;1.10;99.90;;;;;;4915326;29;20035;-86
2024/03/19 06:36:20;;;;;;;23.25;12.15;;;1.20;99.90;;;;;;4913802;29;20482;-84
2024/03/19 06:38:45;;;;;;;27.67;12.93;;;1.30;99.90;;;;;;4915211;29;20029;-85
2024/03/19 06:41:11;;;;;;;27.23;12.50;;;1.50;99.90;;;;;;4929775;29;20091;-85
2024/03/19 06:43:37;;;;;;;23.08;12.50;;;1.70;99.90;;;;;;4911679;29;20032;-85
2024/03/19 06:46:02;;;;;;;17.02;8.75;;;1.70;99.90;;;;;;4918923;29;20088;-86
2024/03/19 06:48:28;;;;;;;19.58;11.13;;;1.70;99.90;;;;;;4915334;29;20044;-88
2024/03/19 06:50:54;;;;;;;21.98;10.98;;;1.70;99.90;;;;;;4920377;29;20035;-86
2024/03/19 06:53:22;;;;;;;22.88;11.85;;;1.70;99.90;;;;;;4915570;29;20103;-84
2024/03/19 06:55:48;;;;;;;18.77;11.25;;;1.80;99.90;;;;;;4914296;29;20050;-85
2024/03/19 06:58:13;;;;;;;19.27;11.48;;;2.00;99.90;;;;;;4915772;29;20414;-85
2024/03/19 07:00:40;;;;;;;16.17;9.88;;;2.00;99.90;;;;;;4912949;29;20056;-86
2024/03/19 07:03:06;;;;;;;15.65;9.35;;;2.10;93.90;;;;;;4915112;29;20020;-85
2024/03/19 07:05:33;;;;;;;16.10;10.07;;;2.30;94.50;;;;;;4916113;29;20103;-86
2024/03/19 07:07:59;;;;;;;25.35;10.30;;;1.90;93.40;;;;;;4909157;29;20028;-86
2024/03/19 07:10:27;;;;;;;16.15;10.05;;;1.70;93.50;;;;;;4918720;29;20107;-85
2024/03/19 07:12:53;;;;;;;14.63;8.90;;;1.70;92.90;;;;;;4917577;29;20028;-86
2024/03/19 07:15:19;;;;;;;16.63;7.80;;;1.60;93.20;;;;;;4918658;29;20036;-86
2024/03/19 07:17:51;;;;;;;18.55;10.38;;;1.50;93.80;;;;;;4917632;29;20043;-82
2024/03/19 07:20:20;;;;;;;;;;;1.60;95.80;;;;;;4906662;29;20125;-85
2024/03/19 07:22:47;;;;;;;11.90;8.35;;;1.60;92.40;;;;;;4907191;29;19998;-84
2024/03/19 07:25:14;;;;;;;15.15;8.30;;;1.70;90.20;;;;;;4916612;29;20435;-85
2024/03/19 07:27:41;;;;;;;11.93;7.63;;;1.60;88.10;;;;;;4910379;29;20107;-86
2024/03/19 07:30:11;;;;;;;12.68;7.90;;;1.90;86.30;;;;;;4915825;29;20032;-87
2024/03/19 07:32:40;;;;;;;14.13;7.43;;;2.10;84.00;;;;;;4916620;29;20137;-86
2024/03/19 07:35:10;;;;;;;13.80;8.43;;;2.40;84.50;;;;;;4915597;29;20466;-84
2024/03/19 07:37:36;;;;;;;14.48;8.25;;;2.50;80.60;;;;;;4916059;29;20032;-85
2024/03/19 07:40:03;;;;;;;12.50;7.47;;;2.50;79.70;;;;;;4917104;29;20024;-83
2024/03/19 07:42:29;;;;;;;15.73;8.75;;;2.50;78.90;;;;;;4900159;29;20038;-82
2024/03/19 07:44:55;;;;;;;18.23;11.63;;;2.10;79.90;;;;;;4915401;29;20115;-83
2024/03/19 07:47:20;;;;;;;18.05;10.38;;;2.20;80.70;;;;;;4915619;29;20096;-82
2024/03/19 07:49:46;;;;;;;10.98;8.10;;;2.20;80.40;;;;;;4915635;29;20071;-83
2024/03/19 07:52:13;;;;;;;20.58;13.35;;;2.40;81.20;;;;;;4916244;29;20032;-81
2024/03/19 07:54:39;;;;;;;16.33;11.50;;;2.50;78.90;;;;;;4916619;29;20413;-79
2024/03/19 07:57:05;;;;;;;10.88;7.30;;;2.70;77.90;;;;;;4917010;29;20072;-89
2024/03/19 07:59:31;;;;;;;15.43;10.25;;;3.00;77.70;;;;;;4914300;29;20111;-82
2024/03/19 08:01:57;;;;;;;13.55;7.93;;;3.20;77.10;;;;;;4916568;29;20038;-84
2024/03/19 08:04:22;;;;;;;13.73;8.02;;;3.40;77.40;;;;;;4916481;29;20028;-78
2024/03/19 08:06:49;;;;;;;13.95;10.45;;;3.50;77.50;;;;;;4916192;29;20029;-81
2024/03/19 08:09:15;;;;;;;18.83;11.02;;;3.60;75.70;;;;;;4920914;29;20107;-84
2024/03/19 08:11:41;;;;;;;11.10;6.82;;;3.70;75.60;;;;;;4920121;29;20561;-87
2024/03/19 08:14:07;;;;;;;11.50;7.78;;;3.40;73.70;;;;;;4915409;29;20123;-85
2024/03/19 08:16:33;;;;;;;11.52;7.13;;;3.10;73.80;;;;;;4916730;29;20194;-86
2024/03/19 08:19:00;;;;;;;11.50;6.63;;;3.10;75.10;;;;;;4914489;29;20051;-86
2024/03/19 08:21:26;;;;;;;10.20;7.13;;;3.00;74.20;;;;;;4913996;29;20032;-83
2024/03/19 08:23:52;;;;;;;21.00;10.48;;;3.20;74.70;;;;;;4916989;29;20027;-85
2024/03/19 08:26:18;;;;;;;11.25;7.20;;;3.40;74.60;;;;;;4921038;29;20031;-84
2024/03/19 08:28:44;;;;;;;17.83;12.30;;;3.70;75.00;;;;;;4914988;29;20032;-85
2024/03/19 08:31:19;;;;;;;9.70;6.32;;;3.60;72.20;;;;;;4914212;29;20075;-83
2024/03/19 08:33:44;;;;;;;9.48;6.25;;;3.60;71.00;;;;;;4916157;29;20032;-88
2024/03/19 08:36:10;;;;;;;9.07;5.78;;;3.30;70.90;;;;;;4912606;29;20080;-83
2024/03/19 08:38:37;;;;;;;10.05;6.13;;;3.40;70.70;;;;;;4913219;29;20574;-82
2024/03/19 08:41:04;;;;;;;10.10;5.85;;;3.20;70.90;;;;;;4914174;29;20031;-82
2024/03/19 08:43:30;;;;;;;9.80;6.20;;;3.20;70.40;;;;;;4914090;29;20020;-83
2024/03/19 08:45:56;;;;;;;10.82;5.53;;;3.00;70.10;;;;;;4913456;29;20047;-83
2024/03/19 08:48:21;;;;;;;8.23;5.38;;;3.10;69.50;;;;;;4915670;29;20493;-82
2024/03/19 08:50:47;;;;;;;11.43;6.45;;;3.40;68.90;;;;;;4913971;29;20031;-82
2024/03/19 08:53:13;;;;;;;51.92;20.38;;;3.50;66.30;;;;;;4914769;29;20024;-82
2024/03/19 08:55:39;;;;;;;24.90;10.40;;;3.50;65.90;;;;;;4913003;29;20032;-81
2024/03/19 08:58:05;;;;;;;11.82;5.40;;;3.20;66.30;;;;;;4914748;29;20020;-82
2024/03/19 09:00:31;;;;;;;13.32;6.22;;;3.30;65.90;;;;;;4914208;29;20234;-83
2024/03/19 09:02:57;;;;;;;66.45;21.38;;;3.50;66.00;;;;;;4914114;29;20046;-83
2024/03/19 09:05:23;;;;;;;104.82;42.22;;;3.50;63.60;;;;;;4912302;29;20016;-83
2024/03/19 09:07:49;;;;;;;71.28;29.83;;;3.70;64.20;;;;;;4912984;29;20035;-83
2024/03/19 09:10:14;;;;;;;25.00;9.27;;;3.90;66.20;;;;;;4912874;29;20024;-83
2024/03/19 09:12:40;;;;;;;22.98;9.60;;;4.20;64.80;;;;;;4913917;29;20111;-83
2024/03/19 09:15:08;;;;;;;11.65;6.63;;;4.30;63.30;;;;;;4903365;29;20402;-83
2024/03/19 09:17:33;;;;;;;12.23;7.07;;;4.60;64.00;;;;;;4913507;29;20060;-84
2024/03/19 09:20:00;;;;;;;12.88;8.38;;;4.80;65.10;;;;;;4915715;29;20037;-82
2024/03/19 09:22:26;;;;;;;11.43;7.10;;;4.80;66.60;;;;;;4912707;29;20470;-82
2024/03/19 09:24:52;;;;;;;8.30;5.50;;;4.70;66.00;;;;;;4913659;29;20035;-82
2024/03/19 09:27:17;;;;;;;9.30;5.57;;;4.30;64.10;;;;;;4915468;29;20064;-82
2024/03/19 09:29:43;;;;;;;5.90;4.65;;;4.00;64.10;;;;;;4916543;29;20028;-82
2024/03/19 09:32:09;;;;;;;8.88;5.45;;;3.70;64.00;;;;;;4916446;29;20095;-82
2024/03/19 09:34:34;;;;;;;10.20;5.53;;;3.80;64.80;;;;;;4915123;29;20028;-82
2024/03/19 09:37:00;;;;;;;7.68;4.93;;;3.80;65.90;;;;;;4914473;29;20466;-82
2024/03/19 09:39:26;;;;;;;7.05;4.75;;;3.80;65.20;;;;;;4913084;29;20434;-82
2024/03/19 09:42:16;;;;;;;6.18;4.20;;;3.70;64.40;;;;;;4913228;29;20032;-82
2024/03/19 09:44:44;;;;;;;20.45;11.23;;;3.60;64.00;;;;;;4913167;29;20028;-82
2024/03/19 09:47:18;;;;;;;6.47;4.80;;;3.60;63.50;;;;;;4929305;29;20111;-81
2024/03/19 09:49:43;;;;;;;6.43;4.15;;;3.50;63.90;;;;;;4913075;29;20103;-82
2024/03/19 09:52:11;;;;;;;6.38;4.35;;;3.70;63.50;;;;;;4914748;29;20052;-82
2024/03/19 09:54:36;;;;;;;5.82;4.13;;;4.00;62.70;;;;;;4914793;29;20031;-82
2024/03/19 09:57:03;;;;;;;7.60;5.07;;;4.30;63.90;;;;;;4915012;29;20126;-82
2024/03/19 09:59:29;;;;;;;3.88;3.45;;;4.70;63.20;;;;;;4916043;29;20032;-82
2024/03/19 10:01:55;;;;;;;7.75;4.95;;;4.70;60.40;;;;;;4916273;29;20029;-82
2024/03/19 10:04:22;;;;;;;10.65;6.80;;;4.80;59.90;;;;;;4914778;29;20579;-82
2024/03/19 10:06:48;;;;;;;6.53;5.07;;;5.00;60.70;;;;;;4916222;29;20048;-82
2024/03/19 10:09:16;;;;;;;5.53;4.10;;;4.80;59.50;;;;;;4914525;29;20418;-82
2024/03/19 10:11:42;;;;;;;8.32;4.57;;;5.10;60.10;;;;;;4916131;29;20497;-82
2024/03/19 10:14:12;;;;;;;251.75;96.47;;;5.10;59.00;;;;;;4915901;29;20024;-82
2024/03/19 10:16:50;;;;;;;46.92;19.23;;;5.20;58.50;;;;;;4916159;29;20040;-85
2024/03/19 10:19:19;;;;;;;7.70;5.13;;;5.20;58.40;;;;;;4914658;29;20487;-84
2024/03/19 10:21:45;;;;;;;18.98;9.77;;;5.40;59.30;;;;;;4914792;29;20067;-84
2024/03/19 10:24:16;;;;;;;8.32;4.68;;;5.50;58.50;;;;;;4918614;29;20023;-83
2024/03/19 10:26:43;;;;;;;6.40;4.63;;;5.70;59.10;;;;;;4915959;29;20028;-82
2024/03/19 10:29:13;;;;;;;7.30;4.93;;;5.90;59.40;;;;;;4914364;29;20078;-82
2024/03/19 10:31:43;;;;;;;8.05;4.93;;;5.70;58.80;;;;;;4914617;29;20099;-83
2024/03/19 10:34:18;;;;;;;8.77;6.07;;;5.80;59.30;;;;;;4914658;29;20020;-83
2024/03/19 10:36:50;;;;;;;7.03;5.00;;;5.70;59.00;;;;;;4918321;29;20032;-83
2024/03/19 10:39:16;;;;;;;6.50;4.07;;;5.80;58.80;;;;;;4918283;29;20016;-83
2024/03/19 10:41:46;;;;;;;39.40;16.00;;;5.50;58.00;;;;;;4918325;29;20021;-86
2024/03/19 10:44:16;;;;;;;7.20;4.57;;;5.40;58.50;;;;;;4933303;29;20020;-84
2024/03/19 10:46:43;;;;;;;5.40;4.30;;;5.40;58.50;;;;;;4919084;29;20024;-84
2024/03/19 10:49:16;;;;;;;6.50;4.47;;;5.50;58.00;;;;;;4917593;29;20140;-84
2024/03/19 10:51:44;;;;;;;6.25;4.43;;;5.50;57.60;;;;;;4917514;29;20493;-82
2024/03/19 10:54:13;;;;;;;6.47;4.10;;;5.60;57.80;;;;;;4916986;29;20076;-85
2024/03/19 10:56:40;;;;;;;6.72;4.85;;;5.90;57.70;;;;;;4925515;29;20519;-84
2024/03/19 10:59:12;;;;;;;5.50;3.88;;;6.00;57.30;;;;;;4922692;29;20028;-84
2024/03/19 11:01:47;;;;;;;5.90;4.20;;;5.90;56.40;;;;;;4917515;29;20437;-83
2024/03/19 11:04:14;;;;;;;4.68;3.72;;;6.10;56.30;;;;;;4917159;29;20017;-85
2024/03/19 11:06:40;;;;;;;6.38;4.03;;;6.10;55.80;;;;;;4917618;29;20020;-85
2024/03/19 11:09:18;;;;;;;5.32;3.72;;;6.00;55.90;;;;;;4918138;29;20024;-82
2024/03/19 11:11:43;;;;;;;6.00;4.38;;;6.00;55.70;;;;;;4918218;29;20038;-88
2024/03/19 11:14:17;;;;;;;9.98;5.07;;;6.10;55.60;;;;;;4919808;29;20118;-88
2024/03/19 11:16:45;;;;;;;5.18;3.78;;;6.00;55.30;;;;;;4917382;29;20032;-88
2024/03/19 11:19:20;;;;;;;5.07;3.30;;;6.10;55.50;;;;;;4917072;29;20024;-89
2024/03/19 11:21:52;;;;;;;6.70;4.40;;;6.10;55.10;;;;;;4917250;29;20072;-87
2024/03/19 11:24:26;;;;;;;5.05;3.88;;;6.10;55.40;;;;;;4916199;29;20456;-87
2024/03/19 11:27:02;;;;;;;4.75;3.72;;;6.20;55.00;;;;;;4918110;29;20487;-85
2024/03/19 11:29:29;;;;;;;7.32;4.20;;;6.30;54.90;;;;;;4916046;29;20042;-87
2024/03/19 11:31:59;;;;;;;6.05;4.25;;;6.50;55.30;;;;;;4916661;29;20035;-86
2024/03/19 11:34:26;;;;;;;5.70;3.40;;;6.40;53.70;;;;;;4918350;29;20111;-88
2024/03/19 11:36:52;;;;;;;4.63;4.03;;;6.30;53.60;;;;;;4917524;29;20072;-89
2024/03/19 11:39:18;;;;;;;11.82;6.97;;;6.50;55.00;;;;;;4898793;29;20039;-90
2024/03/19 11:41:45;;;;;;;6.97;4.78;;;6.60;56.60;;;;;;4916243;29;20118;-87
2024/03/19 11:44:19;;;;;;;5.70;3.85;;;6.80;55.20;;;;;;4917760;29;20024;-86
2024/03/19 11:46:47;;;;;;;5.45;3.97;;;7.00;55.50;;;;;;4909537;29;20036;-85
2024/03/19 11:49:23;;;;;;;5.93;4.38;;;7.00;54.70;;;;;;4916280;29;20139;-85
2024/03/19 11:52:04;;;;;;;4.05;3.22;;;7.00;54.30;;;;;;4911176;29;20036;-85
2024/03/19 11:54:38;;;;;;;6.32;3.42;;;6.80;53.90;;;;;;4916536;29;20028;-89
2024/03/19 11:57:04;;;;;;;6.35;4.40;;;6.60;53.60;;;;;;4909535;29;20471;-87
2024/03/19 11:59:33;;;;;;;5.85;4.47;;;6.50;54.60;;;;;;4907400;29;20138;-88
2024/03/19 12:01:59;;;;;;;5.47;3.72;;;6.50;55.20;;;;;;4917159;29;20024;-84
2024/03/19 12:04:31;;;;;;;5.13;4.30;;;6.70;55.90;;;;;;4907343;29;20039;-87
2024/03/19 12:06:57;;;;;;;5.00;3.92;;;6.80;55.40;;;;;;4916994;29;20067;-84
2024/03/19 12:09:28;;;;;;;6.25;4.63;;;6.60;55.60;;;;;;4914881;29;20031;-80
2024/03/19 12:11:54;;;;;;;5.10;3.83;;;6.70;55.40;;;;;;4916500;29;20024;-82
2024/03/19 12:14:26;;;;;;;5.70;3.55;;;6.60;54.80;;;;;;4898090;29;20160;-81
2024/03/19 12:16:52;;;;;;;5.50;4.32;;;6.50;54.80;;;;;;4912121;29;20055;-84
2024/03/19 12:19:19;;;;;;;7.00;4.28;;;6.50;55.10;;;;;;4916031;29;20054;-85
2024/03/19 12:21:46;;;;;;;5.55;4.32;;;6.40;54.60;;;;;;4907251;29;20063;-83
2024/03/19 12:24:13;;;;;;;5.95;3.75;;;6.50;55.00;;;;;;4915222;29;20025;-82
2024/03/19 12:26:43;;;;;;;5.30;3.78;;;6.50;54.40;;;;;;4916318;29;20025;-83
2024/03/19 12:29:13;;;;;;;6.60;4.95;;;6.50;54.30;;;;;;4916230;29;20028;-80
2024/03/19 12:31:48;;;;;;;8.00;5.28;;;6.70;55.00;;;;;;4914965;29;20020;-83
2024/03/19 12:34:37;;;;;;;6.47;3.70;;;6.90;55.30;;;;;;4886353;29;20100;-83
2024/03/19 12:37:05;;;;;;;4.53;3.92;;;7.10;55.60;;;;;;4913353;29;20078;-85
2024/03/19 12:39:32;;;;;;;7.32;4.68;;;7.10;54.80;;;;;;4909641;29;20095;-85
2024/03/19 12:41:57;;;;;;;6.05;3.60;;;6.90;53.90;;;;;;4909042;29;20031;-85